sensor_id;sensor_type;location;lat;lon;timestamp;P1;durP1;ratioP1;P2;durP2;ratioP2
32523;SDS011;18965;52.242;20.886;2023-04-07T00:01:44;19.60;;;10.27;;
32523;SDS011;18965;52.242;20.886;2023-04-07T00:04:10;18.60;;;9.25;;
32523;SDS011;18965;52.242;20.886;2023-04-07T00:06:35;18.15;;;9.30;;
32523;SDS011;18965;52.242;20.886;2023-04-07T00:09:01;25.48;;;9.90;;
32523;SDS011;18965;52.242;20.886;2023-04-07T00:11:27;21.35;;;9.90;;
32523;SDS011;18965;52.242;20.886;2023-04-07T00:13:53;25.15;;;9.98;;
32523;SDS011;18965;52.242;20.886;2023-04-07T00:16:18;23.48;;;10.32;;
32523;SDS011;18965;52.242;20.886;2023-04-07T00:18:44;20.20;;;9.20;;
32523;SDS011;18965;52.242;20.886;2023-04-07T00:21:10;26.50;;;10.40;;
32523;SDS011;18965;52.242;20.886;2023-04-07T00:23:36;19.70;;;10.10;;
32523;SDS011;18965;52.242;20.886;2023-04-07T00:26:02;20.00;;;9.27;;
32523;SDS011;18965;52.242;20.886;2023-04-07T00:28:28;20.33;;;9.55;;
32523;SDS011;18965;52.242;20.886;2023-04-07T00:30:53;25.30;;;9.73;;
32523;SDS011;18965;52.242;20.886;2023-04-07T00:33:19;23.30;;;9.88;;
32523;SDS011;18965;52.242;20.886;2023-04-07T00:35:45;24.60;;;10.77;;
32523;SDS011;18965;52.242;20.886;2023-04-07T00:38:10;20.52;;;9.27;;
32523;SDS011;18965;52.242;20.886;2023-04-07T00:40:37;22.23;;;9.98;;
32523;SDS011;18965;52.242;20.886;2023-04-07T00:43:02;23.02;;;9.45;;
32523;SDS011;18965;52.242;20.886;2023-04-07T00:45:28;27.80;;;10.98;;
32523;SDS011;18965;52.242;20.886;2023-04-07T00:47:55;19.23;;;9.38;;
32523;SDS011;18965;52.242;20.886;2023-04-07T00:50:22;18.67;;;9.35;;
32523;SDS011;18965;52.242;20.886;2023-04-07T00:52:48;19.75;;;10.15;;
32523;SDS011;18965;52.242;20.886;2023-04-07T00:55:14;28.98;;;10.95;;
32523;SDS011;18965;52.242;20.886;2023-04-07T00:57:40;20.73;;;10.18;;
32523;SDS011;18965;52.242;20.886;2023-04-07T01:00:06;17.15;;;9.25;;
32523;SDS011;18965;52.242;20.886;2023-04-07T01:02:34;17.35;;;9.02;;
32523;SDS011;18965;52.242;20.886;2023-04-07T01:05:16;20.00;;;9.68;;
32523;SDS011;18965;52.242;20.886;2023-04-07T01:07:51;20.10;;;10.18;;
32523;SDS011;18965;52.242;20.886;2023-04-07T01:10:51;19.52;;;9.52;;
32523;SDS011;18965;52.242;20.886;2023-04-07T01:15:48;26.15;;;10.32;;
32523;SDS011;18965;52.242;20.886;2023-04-07T01:18:20;18.25;;;9.90;;
32523;SDS011;18965;52.242;20.886;2023-04-07T01:20:50;19.65;;;9.20;;
32523;SDS011;18965;52.242;20.886;2023-04-07T01:26:28;17.90;;;9.15;;
32523;SDS011;18965;52.242;20.886;2023-04-07T01:31:58;21.58;;;9.57;;
32523;SDS011;18965;52.242;20.886;2023-04-07T01:34:26;23.17;;;10.15;;
32523;SDS011;18965;52.242;20.886;2023-04-07T01:36:55;18.35;;;9.40;;
32523;SDS011;18965;52.242;20.886;2023-04-07T01:39:23;24.60;;;11.63;;
32523;SDS011;18965;52.242;20.886;2023-04-07T01:41:51;29.95;;;11.65;;
32523;SDS011;18965;52.242;20.886;2023-04-07T01:44:19;28.67;;;11.57;;
32523;SDS011;18965;52.242;20.886;2023-04-07T01:46:45;18.70;;;10.15;;
32523;SDS011;18965;52.242;20.886;2023-04-07T01:49:11;36.42;;;12.57;;
32523;SDS011;18965;52.242;20.886;2023-04-07T01:51:38;24.60;;;10.75;;
32523;SDS011;18965;52.242;20.886;2023-04-07T01:54:05;19.55;;;7.82;;
32523;SDS011;18965;52.242;20.886;2023-04-07T01:56:32;24.80;;;10.75;;
32523;SDS011;18965;52.242;20.886;2023-04-07T01:58:58;34.88;;;12.65;;
32523;SDS011;18965;52.242;20.886;2023-04-07T02:01:24;47.92;;;13.63;;
32523;SDS011;18965;52.242;20.886;2023-04-07T02:04:34;29.25;;;11.43;;
32523;SDS011;18965;52.242;20.886;2023-04-07T02:07:09;31.55;;;13.27;;
32523;SDS011;18965;52.242;20.886;2023-04-07T02:09:42;24.67;;;11.77;;
32523;SDS011;18965;52.242;20.886;2023-04-07T02:12:11;17.15;;;8.80;;
32523;SDS011;18965;52.242;20.886;2023-04-07T02:14:40;39.13;;;14.07;;
32523;SDS011;18965;52.242;20.886;2023-04-07T02:17:07;35.40;;;11.88;;
32523;SDS011;18965;52.242;20.886;2023-04-07T02:19:34;47.63;;;15.10;;
32523;SDS011;18965;52.242;20.886;2023-04-07T02:22:02;27.17;;;11.77;;
32523;SDS011;18965;52.242;20.886;2023-04-07T02:24:28;27.02;;;12.90;;
32523;SDS011;18965;52.242;20.886;2023-04-07T02:26:54;42.08;;;14.65;;
32523;SDS011;18965;52.242;20.886;2023-04-07T02:29:20;28.70;;;13.00;;
32523;SDS011;18965;52.242;20.886;2023-04-07T02:31:46;29.42;;;13.38;;
32523;SDS011;18965;52.242;20.886;2023-04-07T02:34:12;27.90;;;13.68;;
32523;SDS011;18965;52.242;20.886;2023-04-07T02:36:37;29.90;;;12.43;;
32523;SDS011;18965;52.242;20.886;2023-04-07T02:39:03;53.15;;;17.08;;
32523;SDS011;18965;52.242;20.886;2023-04-07T02:41:29;28.73;;;13.45;;
32523;SDS011;18965;52.242;20.886;2023-04-07T02:43:55;35.15;;;15.57;;
32523;SDS011;18965;52.242;20.886;2023-04-07T02:46:20;30.52;;;14.25;;
32523;SDS011;18965;52.242;20.886;2023-04-07T02:48:46;41.00;;;15.68;;
32523;SDS011;18965;52.242;20.886;2023-04-07T02:51:12;30.15;;;14.57;;
32523;SDS011;18965;52.242;20.886;2023-04-07T02:53:38;29.33;;;13.93;;
32523;SDS011;18965;52.242;20.886;2023-04-07T02:56:03;29.73;;;14.13;;
32523;SDS011;18965;52.242;20.886;2023-04-07T02:58:30;39.75;;;15.02;;
32523;SDS011;18965;52.242;20.886;2023-04-07T03:00:56;33.00;;;12.85;;
32523;SDS011;18965;52.242;20.886;2023-04-07T03:03:21;31.30;;;14.20;;
32523;SDS011;18965;52.242;20.886;2023-04-07T03:05:47;37.22;;;15.20;;
32523;SDS011;18965;52.242;20.886;2023-04-07T03:08:13;28.00;;;14.00;;
32523;SDS011;18965;52.242;20.886;2023-04-07T03:10:38;26.70;;;13.02;;
32523;SDS011;18965;52.242;20.886;2023-04-07T03:13:04;27.55;;;11.68;;
32523;SDS011;18965;52.242;20.886;2023-04-07T03:15:32;36.13;;;14.40;;
32523;SDS011;18965;52.242;20.886;2023-04-07T03:17:58;28.35;;;13.85;;
32523;SDS011;18965;52.242;20.886;2023-04-07T03:20:23;31.83;;;14.55;;
32523;SDS011;18965;52.242;20.886;2023-04-07T03:22:49;29.27;;;13.23;;
32523;SDS011;18965;52.242;20.886;2023-04-07T03:25:15;26.30;;;13.57;;
32523;SDS011;18965;52.242;20.886;2023-04-07T03:27:41;34.38;;;14.35;;
32523;SDS011;18965;52.242;20.886;2023-04-07T03:30:06;27.77;;;12.88;;
32523;SDS011;18965;52.242;20.886;2023-04-07T03:32:33;26.40;;;12.35;;
32523;SDS011;18965;52.242;20.886;2023-04-07T03:34:58;33.95;;;16.25;;
32523;SDS011;18965;52.242;20.886;2023-04-07T03:37:24;35.72;;;14.30;;
32523;SDS011;18965;52.242;20.886;2023-04-07T03:39:50;27.25;;;14.27;;
32523;SDS011;18965;52.242;20.886;2023-04-07T03:42:16;33.90;;;14.93;;
32523;SDS011;18965;52.242;20.886;2023-04-07T03:44:41;58.97;;;16.75;;
32523;SDS011;18965;52.242;20.886;2023-04-07T03:47:07;27.00;;;13.82;;
32523;SDS011;18965;52.242;20.886;2023-04-07T03:49:33;41.22;;;15.32;;
32523;SDS011;18965;52.242;20.886;2023-04-07T03:51:59;37.22;;;14.60;;
32523;SDS011;18965;52.242;20.886;2023-04-07T03:54:25;38.03;;;15.32;;
32523;SDS011;18965;52.242;20.886;2023-04-07T03:56:50;36.90;;;15.93;;
32523;SDS011;18965;52.242;20.886;2023-04-07T03:59:16;49.50;;;17.13;;
32523;SDS011;18965;52.242;20.886;2023-04-07T04:01:42;30.35;;;14.27;;
32523;SDS011;18965;52.242;20.886;2023-04-07T04:04:08;28.08;;;14.70;;
32523;SDS011;18965;52.242;20.886;2023-04-07T04:06:34;28.23;;;14.43;;
32523;SDS011;18965;52.242;20.886;2023-04-07T04:09:00;36.20;;;14.63;;
32523;SDS011;18965;52.242;20.886;2023-04-07T04:11:26;36.42;;;16.40;;
32523;SDS011;18965;52.242;20.886;2023-04-07T04:13:51;34.45;;;15.10;;
32523;SDS011;18965;52.242;20.886;2023-04-07T04:16:17;28.00;;;14.63;;
32523;SDS011;18965;52.242;20.886;2023-04-07T04:18:43;27.27;;;12.93;;
32523;SDS011;18965;52.242;20.886;2023-04-07T04:21:08;45.03;;;15.45;;
32523;SDS011;18965;52.242;20.886;2023-04-07T04:23:34;33.00;;;15.18;;
32523;SDS011;18965;52.242;20.886;2023-04-07T04:26:00;26.10;;;13.90;;
32523;SDS011;18965;52.242;20.886;2023-04-07T04:28:27;26.00;;;13.82;;
32523;SDS011;18965;52.242;20.886;2023-04-07T04:30:54;36.22;;;15.43;;
32523;SDS011;18965;52.242;20.886;2023-04-07T04:33:20;35.85;;;15.35;;
32523;SDS011;18965;52.242;20.886;2023-04-07T04:35:45;28.17;;;14.63;;
32523;SDS011;18965;52.242;20.886;2023-04-07T04:38:11;29.20;;;13.80;;
32523;SDS011;18965;52.242;20.886;2023-04-07T04:40:37;37.42;;;11.52;;
32523;SDS011;18965;52.242;20.886;2023-04-07T04:43:02;43.25;;;13.77;;
32523;SDS011;18965;52.242;20.886;2023-04-07T04:45:31;42.00;;;14.93;;
32523;SDS011;18965;52.242;20.886;2023-04-07T04:48:00;25.58;;;12.15;;
32523;SDS011;18965;52.242;20.886;2023-04-07T04:50:26;34.67;;;13.75;;
32523;SDS011;18965;52.242;20.886;2023-04-07T04:52:51;30.33;;;14.85;;
32523;SDS011;18965;52.242;20.886;2023-04-07T04:55:17;22.88;;;12.50;;
32523;SDS011;18965;52.242;20.886;2023-04-07T04:57:43;25.92;;;14.07;;
32523;SDS011;18965;52.242;20.886;2023-04-07T05:00:09;31.77;;;13.30;;
32523;SDS011;18965;52.242;20.886;2023-04-07T05:02:35;39.80;;;15.60;;
32523;SDS011;18965;52.242;20.886;2023-04-07T05:05:01;26.15;;;13.82;;
32523;SDS011;18965;52.242;20.886;2023-04-07T05:07:27;22.50;;;10.85;;
32523;SDS011;18965;52.242;20.886;2023-04-07T05:09:53;46.25;;;14.93;;
32523;SDS011;18965;52.242;20.886;2023-04-07T05:12:19;45.72;;;15.65;;
32523;SDS011;18965;52.242;20.886;2023-04-07T05:14:45;32.35;;;13.23;;
32523;SDS011;18965;52.242;20.886;2023-04-07T05:17:11;28.00;;;13.45;;
32523;SDS011;18965;52.242;20.886;2023-04-07T05:19:37;25.73;;;14.68;;
32523;SDS011;18965;52.242;20.886;2023-04-07T05:22:03;30.77;;;13.75;;
32523;SDS011;18965;52.242;20.886;2023-04-07T05:24:28;51.28;;;16.13;;
32523;SDS011;18965;52.242;20.886;2023-04-07T05:26:54;39.38;;;13.63;;
32523;SDS011;18965;52.242;20.886;2023-04-07T05:29:21;27.30;;;14.40;;
32523;SDS011;18965;52.242;20.886;2023-04-07T05:31:47;23.20;;;9.02;;
32523;SDS011;18965;52.242;20.886;2023-04-07T05:34:12;31.83;;;14.45;;
32523;SDS011;18965;52.242;20.886;2023-04-07T05:36:38;36.95;;;15.80;;
32523;SDS011;18965;52.242;20.886;2023-04-07T05:39:04;40.17;;;13.43;;
32523;SDS011;18965;52.242;20.886;2023-04-07T05:41:30;93.13;;;18.17;;
32523;SDS011;18965;52.242;20.886;2023-04-07T05:43:56;30.98;;;15.73;;
32523;SDS011;18965;52.242;20.886;2023-04-07T05:46:21;38.45;;;12.20;;
32523;SDS011;18965;52.242;20.886;2023-04-07T05:48:47;39.00;;;13.68;;
32523;SDS011;18965;52.242;20.886;2023-04-07T05:51:13;39.35;;;17.50;;
32523;SDS011;18965;52.242;20.886;2023-04-07T05:53:39;51.47;;;17.05;;
32523;SDS011;18965;52.242;20.886;2023-04-07T05:56:05;36.53;;;17.58;;
32523;SDS011;18965;52.242;20.886;2023-04-07T05:58:31;42.70;;;15.27;;
32523;SDS011;18965;52.242;20.886;2023-04-07T06:00:57;41.05;;;16.90;;
32523;SDS011;18965;52.242;20.886;2023-04-07T06:03:22;38.25;;;15.43;;
32523;SDS011;18965;52.242;20.886;2023-04-07T06:05:48;47.15;;;14.63;;
32523;SDS011;18965;52.242;20.886;2023-04-07T06:08:14;40.70;;;18.02;;
32523;SDS011;18965;52.242;20.886;2023-04-07T06:10:40;68.18;;;19.95;;
32523;SDS011;18965;52.242;20.886;2023-04-07T06:13:06;110.28;;;38.95;;
32523;SDS011;18965;52.242;20.886;2023-04-07T06:15:31;96.78;;;31.45;;
32523;SDS011;18965;52.242;20.886;2023-04-07T06:17:57;40.33;;;17.08;;
32523;SDS011;18965;52.242;20.886;2023-04-07T06:20:23;76.88;;;19.15;;
32523;SDS011;18965;52.242;20.886;2023-04-07T06:22:51;56.05;;;17.70;;
32523;SDS011;18965;52.242;20.886;2023-04-07T06:25:18;39.10;;;12.50;;
32523;SDS011;18965;52.242;20.886;2023-04-07T06:27:44;51.65;;;18.55;;
32523;SDS011;18965;52.242;20.886;2023-04-07T06:30:11;51.80;;;20.27;;
32523;SDS011;18965;52.242;20.886;2023-04-07T06:32:36;53.78;;;17.60;;
32523;SDS011;18965;52.242;20.886;2023-04-07T06:35:02;25.73;;;11.20;;
32523;SDS011;18965;52.242;20.886;2023-04-07T06:37:28;49.15;;;16.77;;
32523;SDS011;18965;52.242;20.886;2023-04-07T06:39:54;57.10;;;16.63;;
32523;SDS011;18965;52.242;20.886;2023-04-07T06:42:20;88.38;;;20.73;;
32523;SDS011;18965;52.242;20.886;2023-04-07T06:44:45;49.55;;;17.02;;
32523;SDS011;18965;52.242;20.886;2023-04-07T06:47:11;79.45;;;18.05;;
32523;SDS011;18965;52.242;20.886;2023-04-07T06:49:37;52.10;;;18.83;;
32523;SDS011;18965;52.242;20.886;2023-04-07T06:52:03;36.13;;;15.40;;
32523;SDS011;18965;52.242;20.886;2023-04-07T06:54:29;36.25;;;15.15;;
32523;SDS011;18965;52.242;20.886;2023-04-07T06:56:55;39.60;;;14.68;;
32523;SDS011;18965;52.242;20.886;2023-04-07T06:59:21;42.05;;;13.20;;
32523;SDS011;18965;52.242;20.886;2023-04-07T07:01:47;39.03;;;14.75;;
32523;SDS011;18965;52.242;20.886;2023-04-07T07:04:13;37.00;;;15.10;;
32523;SDS011;18965;52.242;20.886;2023-04-07T07:06:42;34.97;;;16.08;;
32523;SDS011;18965;52.242;20.886;2023-04-07T07:09:10;50.40;;;18.52;;
32523;SDS011;18965;52.242;20.886;2023-04-07T07:11:36;30.83;;;15.00;;
32523;SDS011;18965;52.242;20.886;2023-04-07T07:14:02;36.53;;;16.33;;
32523;SDS011;18965;52.242;20.886;2023-04-07T07:16:28;36.63;;;14.63;;
32523;SDS011;18965;52.242;20.886;2023-04-07T07:18:54;50.50;;;14.43;;
32523;SDS011;18965;52.242;20.886;2023-04-07T07:21:20;29.98;;;14.98;;
32523;SDS011;18965;52.242;20.886;2023-04-07T07:23:45;20.52;;;11.77;;
32523;SDS011;18965;52.242;20.886;2023-04-07T07:26:11;33.50;;;14.35;;
32523;SDS011;18965;52.242;20.886;2023-04-07T07:28:37;28.65;;;13.60;;
32523;SDS011;18965;52.242;20.886;2023-04-07T07:31:10;43.60;;;14.60;;
32523;SDS011;18965;52.242;20.886;2023-04-07T07:33:40;39.22;;;15.32;;
32523;SDS011;18965;52.242;20.886;2023-04-07T07:36:07;30.17;;;14.02;;
32523;SDS011;18965;52.242;20.886;2023-04-07T07:38:34;32.47;;;12.57;;
32523;SDS011;18965;52.242;20.886;2023-04-07T07:41:00;27.95;;;14.25;;
32523;SDS011;18965;52.242;20.886;2023-04-07T07:43:26;29.92;;;13.68;;
32523;SDS011;18965;52.242;20.886;2023-04-07T07:45:52;29.35;;;14.55;;
32523;SDS011;18965;52.242;20.886;2023-04-07T07:48:18;29.30;;;13.43;;
32523;SDS011;18965;52.242;20.886;2023-04-07T07:50:45;28.58;;;12.85;;
32523;SDS011;18965;52.242;20.886;2023-04-07T07:53:12;32.65;;;13.18;;
32523;SDS011;18965;52.242;20.886;2023-04-07T07:55:41;28.17;;;13.60;;
32523;SDS011;18965;52.242;20.886;2023-04-07T07:58:06;28.42;;;11.98;;
32523;SDS011;18965;52.242;20.886;2023-04-07T08:00:32;37.20;;;14.13;;
32523;SDS011;18965;52.242;20.886;2023-04-07T08:02:58;28.73;;;13.48;;
32523;SDS011;18965;52.242;20.886;2023-04-07T08:05:24;39.08;;;15.27;;
32523;SDS011;18965;52.242;20.886;2023-04-07T08:07:51;31.92;;;13.88;;
32523;SDS011;18965;52.242;20.886;2023-04-07T08:10:17;36.75;;;14.68;;
32523;SDS011;18965;52.242;20.886;2023-04-07T08:12:44;34.42;;;14.57;;
32523;SDS011;18965;52.242;20.886;2023-04-07T08:15:10;30.30;;;13.98;;
32523;SDS011;18965;52.242;20.886;2023-04-07T08:17:36;31.92;;;13.63;;
32523;SDS011;18965;52.242;20.886;2023-04-07T08:20:02;29.00;;;13.82;;
32523;SDS011;18965;52.242;20.886;2023-04-07T08:22:29;27.65;;;14.77;;
32523;SDS011;18965;52.242;20.886;2023-04-07T08:24:54;34.30;;;14.35;;
32523;SDS011;18965;52.242;20.886;2023-04-07T08:27:20;35.80;;;13.95;;
32523;SDS011;18965;52.242;20.886;2023-04-07T08:30:04;29.35;;;13.75;;
32523;SDS011;18965;52.242;20.886;2023-04-07T08:32:40;29.63;;;13.52;;
32523;SDS011;18965;52.242;20.886;2023-04-07T08:35:06;30.27;;;12.05;;
32523;SDS011;18965;52.242;20.886;2023-04-07T08:37:33;22.65;;;13.10;;
32523;SDS011;18965;52.242;20.886;2023-04-07T08:40:00;28.50;;;13.00;;
32523;SDS011;18965;52.242;20.886;2023-04-07T08:42:29;24.85;;;13.30;;
32523;SDS011;18965;52.242;20.886;2023-04-07T08:44:56;31.73;;;13.45;;
32523;SDS011;18965;52.242;20.886;2023-04-07T08:49:53;28.02;;;11.85;;
32523;SDS011;18965;52.242;20.886;2023-04-07T08:52:25;25.33;;;12.25;;
32523;SDS011;18965;52.242;20.886;2023-04-07T08:55:12;23.08;;;10.23;;
32523;SDS011;18965;52.242;20.886;2023-04-07T08:57:38;25.30;;;12.35;;
32523;SDS011;18965;52.242;20.886;2023-04-07T09:00:05;20.58;;;10.75;;
32523;SDS011;18965;52.242;20.886;2023-04-07T09:02:32;20.75;;;9.93;;
32523;SDS011;18965;52.242;20.886;2023-04-07T09:07:31;23.13;;;11.88;;
32523;SDS011;18965;52.242;20.886;2023-04-07T09:09:58;22.42;;;10.82;;
32523;SDS011;18965;52.242;20.886;2023-04-07T09:12:26;34.45;;;14.23;;
32523;SDS011;18965;52.242;20.886;2023-04-07T09:14:52;22.83;;;10.27;;
32523;SDS011;18965;52.242;20.886;2023-04-07T09:17:18;20.85;;;11.88;;
32523;SDS011;18965;52.242;20.886;2023-04-07T09:19:45;31.05;;;12.93;;
32523;SDS011;18965;52.242;20.886;2023-04-07T09:22:12;30.17;;;11.18;;
32523;SDS011;18965;52.242;20.886;2023-04-07T09:24:39;20.42;;;12.80;;
32523;SDS011;18965;52.242;20.886;2023-04-07T09:27:09;21.63;;;11.95;;
32523;SDS011;18965;52.242;20.886;2023-04-07T09:29:35;26.25;;;13.60;;
32523;SDS011;18965;52.242;20.886;2023-04-07T09:32:02;25.92;;;13.68;;
32523;SDS011;18965;52.242;20.886;2023-04-07T09:36:55;25.98;;;14.57;;
32523;SDS011;18965;52.242;20.886;2023-04-07T09:39:51;24.13;;;13.85;;
32523;SDS011;18965;52.242;20.886;2023-04-07T09:42:18;26.45;;;13.45;;
32523;SDS011;18965;52.242;20.886;2023-04-07T09:44:44;28.55;;;12.95;;
32523;SDS011;18965;52.242;20.886;2023-04-07T09:47:11;27.27;;;11.75;;
32523;SDS011;18965;52.242;20.886;2023-04-07T09:49:51;29.42;;;14.50;;
32523;SDS011;18965;52.242;20.886;2023-04-07T09:52:18;41.92;;;20.83;;
32523;SDS011;18965;52.242;20.886;2023-04-07T09:54:47;64.00;;;49.20;;
32523;SDS011;18965;52.242;20.886;2023-04-07T09:57:13;101.68;;;68.97;;
32523;SDS011;18965;52.242;20.886;2023-04-07T09:59:41;133.90;;;80.45;;
32523;SDS011;18965;52.242;20.886;2023-04-07T10:02:08;216.32;;;106.38;;
32523;SDS011;18965;52.242;20.886;2023-04-07T10:04:35;255.15;;;128.45;;
32523;SDS011;18965;52.242;20.886;2023-04-07T10:07:01;256.10;;;111.80;;
32523;SDS011;18965;52.242;20.886;2023-04-07T10:09:28;226.80;;;100.03;;
32523;SDS011;18965;52.242;20.886;2023-04-07T10:11:55;257.15;;;112.93;;
32523;SDS011;18965;52.242;20.886;2023-04-07T10:14:25;211.30;;;94.80;;
32523;SDS011;18965;52.242;20.886;2023-04-07T10:16:55;104.80;;;46.90;;
32523;SDS011;18965;52.242;20.886;2023-04-07T10:19:21;172.00;;;83.40;;
32523;SDS011;18965;52.242;20.886;2023-04-07T10:21:52;174.90;;;96.63;;
32523;SDS011;18965;52.242;20.886;2023-04-07T10:26:50;27.65;;;13.10;;
32523;SDS011;18965;52.242;20.886;2023-04-07T10:29:20;19.88;;;10.75;;
32523;SDS011;18965;52.242;20.886;2023-04-07T10:31:49;32.03;;;12.02;;
32523;SDS011;18965;52.242;20.886;2023-04-07T10:34:15;25.40;;;12.27;;
32523;SDS011;18965;52.242;20.886;2023-04-07T10:39:41;23.02;;;11.48;;
32523;SDS011;18965;52.242;20.886;2023-04-07T10:45:05;57.33;;;20.40;;
32523;SDS011;18965;52.242;20.886;2023-04-07T10:47:33;20.75;;;11.55;;
32523;SDS011;18965;52.242;20.886;2023-04-07T10:52:46;21.30;;;10.93;;
32523;SDS011;18965;52.242;20.886;2023-04-07T10:58:57;20.55;;;11.27;;
32523;SDS011;18965;52.242;20.886;2023-04-07T11:06:06;20.27;;;11.63;;
32523;SDS011;18965;52.242;20.886;2023-04-07T11:08:38;17.05;;;10.95;;
32523;SDS011;18965;52.242;20.886;2023-04-07T11:11:08;15.13;;;11.13;;
32523;SDS011;18965;52.242;20.886;2023-04-07T11:13:41;25.10;;;14.82;;
32523;SDS011;18965;52.242;20.886;2023-04-07T11:16:08;24.63;;;15.80;;
32523;SDS011;18965;52.242;20.886;2023-04-07T11:18:35;31.10;;;20.27;;
32523;SDS011;18965;52.242;20.886;2023-04-07T11:21:01;20.42;;;12.65;;
32523;SDS011;18965;52.242;20.886;2023-04-07T11:23:29;15.82;;;10.70;;
32523;SDS011;18965;52.242;20.886;2023-04-07T11:26:02;55.10;;;32.50;;
32523;SDS011;18965;52.242;20.886;2023-04-07T11:28:29;42.63;;;24.25;;
32523;SDS011;18965;52.242;20.886;2023-04-07T11:30:55;33.65;;;21.80;;
32523;SDS011;18965;52.242;20.886;2023-04-07T11:33:29;66.07;;;39.75;;
32523;SDS011;18965;52.242;20.886;2023-04-07T11:36:00;49.13;;;28.58;;
32523;SDS011;18965;52.242;20.886;2023-04-07T11:38:28;47.60;;;26.83;;
32523;SDS011;18965;52.242;20.886;2023-04-07T11:41:08;45.25;;;27.08;;
32523;SDS011;18965;52.242;20.886;2023-04-07T11:50:36;37.22;;;23.05;;
32523;SDS011;18965;52.242;20.886;2023-04-07T11:53:13;53.97;;;30.92;;
32523;SDS011;18965;52.242;20.886;2023-04-07T11:58:49;90.00;;;43.95;;
32523;SDS011;18965;52.242;20.886;2023-04-07T12:01:17;45.58;;;23.83;;
32523;SDS011;18965;52.242;20.886;2023-04-07T12:04:04;35.00;;;17.13;;
32523;SDS011;18965;52.242;20.886;2023-04-07T12:06:33;58.13;;;26.35;;
32523;SDS011;18965;52.242;20.886;2023-04-07T12:09:05;70.45;;;31.42;;
32523;SDS011;18965;52.242;20.886;2023-04-07T12:11:32;95.65;;;42.05;;
32523;SDS011;18965;52.242;20.886;2023-04-07T12:14:03;66.90;;;31.52;;
32523;SDS011;18965;52.242;20.886;2023-04-07T12:16:29;43.42;;;21.73;;
32523;SDS011;18965;52.242;20.886;2023-04-07T12:18:55;32.08;;;18.48;;
32523;SDS011;18965;52.242;20.886;2023-04-07T12:21:21;48.35;;;25.02;;
32523;SDS011;18965;52.242;20.886;2023-04-07T12:23:49;29.85;;;15.77;;
32523;SDS011;18965;52.242;20.886;2023-04-07T12:26:15;25.27;;;13.65;;
32523;SDS011;18965;52.242;20.886;2023-04-07T12:28:41;18.33;;;10.63;;
32523;SDS011;18965;52.242;20.886;2023-04-07T12:31:08;33.70;;;16.17;;
32523;SDS011;18965;52.242;20.886;2023-04-07T12:33:34;25.10;;;14.70;;
32523;SDS011;18965;52.242;20.886;2023-04-07T12:35:59;17.67;;;12.25;;
32523;SDS011;18965;52.242;20.886;2023-04-07T12:38:25;28.55;;;16.60;;
32523;SDS011;18965;52.242;20.886;2023-04-07T12:40:52;19.17;;;13.13;;
32523;SDS011;18965;52.242;20.886;2023-04-07T12:43:18;29.20;;;20.15;;
32523;SDS011;18965;52.242;20.886;2023-04-07T12:45:44;31.58;;;14.85;;
32523;SDS011;18965;52.242;20.886;2023-04-07T12:48:10;28.85;;;18.15;;
32523;SDS011;18965;52.242;20.886;2023-04-07T12:50:36;56.10;;;33.83;;
32523;SDS011;18965;52.242;20.886;2023-04-07T12:53:02;19.30;;;11.85;;
32523;SDS011;18965;52.242;20.886;2023-04-07T12:55:29;23.02;;;11.55;;
32523;SDS011;18965;52.242;20.886;2023-04-07T12:57:57;22.30;;;14.35;;
32523;SDS011;18965;52.242;20.886;2023-04-07T13:00:24;22.17;;;14.23;;
32523;SDS011;18965;52.242;20.886;2023-04-07T13:02:49;25.73;;;16.55;;
32523;SDS011;18965;52.242;20.886;2023-04-07T13:05:15;56.45;;;31.77;;
32523;SDS011;18965;52.242;20.886;2023-04-07T13:07:43;18.80;;;10.27;;
32523;SDS011;18965;52.242;20.886;2023-04-07T13:10:09;13.55;;;8.73;;
32523;SDS011;18965;52.242;20.886;2023-04-07T13:12:35;28.02;;;12.23;;
32523;SDS011;18965;52.242;20.886;2023-04-07T13:15:00;9.20;;;5.80;;
32523;SDS011;18965;52.242;20.886;2023-04-07T13:17:26;9.52;;;5.45;;
32523;SDS011;18965;52.242;20.886;2023-04-07T13:19:53;10.55;;;5.75;;
32523;SDS011;18965;52.242;20.886;2023-04-07T13:22:18;10.07;;;5.40;;
32523;SDS011;18965;52.242;20.886;2023-04-07T13:24:44;12.50;;;5.80;;
32523;SDS011;18965;52.242;20.886;2023-04-07T13:27:10;8.70;;;4.35;;
32523;SDS011;18965;52.242;20.886;2023-04-07T13:29:35;10.13;;;4.75;;
32523;SDS011;18965;52.242;20.886;2023-04-07T13:32:05;7.47;;;3.40;;
32523;SDS011;18965;52.242;20.886;2023-04-07T13:34:32;9.95;;;5.18;;
32523;SDS011;18965;52.242;20.886;2023-04-07T13:37:00;5.32;;;3.55;;
32523;SDS011;18965;52.242;20.886;2023-04-07T13:39:27;7.78;;;3.83;;
32523;SDS011;18965;52.242;20.886;2023-04-07T13:41:53;19.02;;;6.60;;
32523;SDS011;18965;52.242;20.886;2023-04-07T13:44:18;8.70;;;3.78;;
32523;SDS011;18965;52.242;20.886;2023-04-07T13:46:44;12.10;;;4.80;;
32523;SDS011;18965;52.242;20.886;2023-04-07T13:49:10;11.27;;;6.18;;
32523;SDS011;18965;52.242;20.886;2023-04-07T13:51:36;5.63;;;2.97;;
32523;SDS011;18965;52.242;20.886;2023-04-07T13:54:02;10.90;;;4.57;;
32523;SDS011;18965;52.242;20.886;2023-04-07T13:56:27;24.08;;;14.60;;
32523;SDS011;18965;52.242;20.886;2023-04-07T13:58:53;12.70;;;8.10;;
32523;SDS011;18965;52.242;20.886;2023-04-07T14:01:19;10.10;;;6.35;;
32523;SDS011;18965;52.242;20.886;2023-04-07T14:03:46;14.27;;;8.77;;
32523;SDS011;18965;52.242;20.886;2023-04-07T14:06:13;16.08;;;9.00;;
32523;SDS011;18965;52.242;20.886;2023-04-07T14:08:41;10.10;;;5.68;;
32523;SDS011;18965;52.242;20.886;2023-04-07T14:11:06;7.43;;;4.57;;
32523;SDS011;18965;52.242;20.886;2023-04-07T14:13:33;11.00;;;6.25;;
32523;SDS011;18965;52.242;20.886;2023-04-07T14:16:00;8.52;;;4.07;;
32523;SDS011;18965;52.242;20.886;2023-04-07T14:18:26;8.90;;;4.25;;
32523;SDS011;18965;52.242;20.886;2023-04-07T14:20:55;7.60;;;4.03;;
32523;SDS011;18965;52.242;20.886;2023-04-07T14:23:21;36.90;;;12.93;;
32523;SDS011;18965;52.242;20.886;2023-04-07T14:25:48;7.20;;;3.95;;
32523;SDS011;18965;52.242;20.886;2023-04-07T14:28:13;10.30;;;4.50;;
32523;SDS011;18965;52.242;20.886;2023-04-07T14:30:39;6.15;;;3.38;;
32523;SDS011;18965;52.242;20.886;2023-04-07T14:33:05;7.78;;;4.13;;
32523;SDS011;18965;52.242;20.886;2023-04-07T14:35:31;8.63;;;4.70;;
32523;SDS011;18965;52.242;20.886;2023-04-07T14:37:56;5.95;;;3.53;;
32523;SDS011;18965;52.242;20.886;2023-04-07T14:40:22;12.00;;;4.47;;
32523;SDS011;18965;52.242;20.886;2023-04-07T14:42:48;8.15;;;3.55;;
32523;SDS011;18965;52.242;20.886;2023-04-07T14:45:14;6.72;;;3.88;;
32523;SDS011;18965;52.242;20.886;2023-04-07T14:47:41;6.70;;;3.67;;
32523;SDS011;18965;52.242;20.886;2023-04-07T14:50:07;8.68;;;4.07;;
32523;SDS011;18965;52.242;20.886;2023-04-07T14:52:33;8.30;;;3.95;;
32523;SDS011;18965;52.242;20.886;2023-04-07T14:54:59;5.53;;;3.00;;
32523;SDS011;18965;52.242;20.886;2023-04-07T14:57:25;15.18;;;8.25;;